aviador You're here:

KLUX Decoded Metar

LAURENS CTY in SC, USA
Report Time2017-07-21 06:35:00
UTC Time2017-07-21 06:43:55
Flight Rules vfr VFR
Wind220° at 03 kt
W.Decomp.*RWY 26: 2.4 kt HW 1.8 kt LCW
W.Rank220° ranks 2
Current wind is below 220° avg. (5.7)
Visibility9999 m
Phenomena:N/A
Clouds:N/A
Expected CloudBase > 400 ft AGL from Temp-Dew spread
CeilingNone
Temp23°C (ISA +9)
Dew Point22°C (94% RH)
QNH1017 hPa
Density Alt2,008 ft
Elevation699 ft
Report Wrong Elevation
Raw Report
METAR KLUX 210635Z AUTO 22003KT 10SM CLR 23/22 A3003 RMK AO2=

Extra information for KLUX:More info

Metar Taf Metar & Taf Last 4 Metars F.Rules Stats Wind Profile Meteogram Temp Stats Airport Information Weather charts Add Link Nearby VenuesMetar ALERT Operation Metar Decoded Social comments

AIRNAV info for KLUX